Accueil
METAR-TAF:

METAR-TAF

Aéroports :

Minneapolis, Minnesota, États-Unis

Aéroport international de Minneapolis-Saint-Paul

latitude: 44-52-59N, longitude: 093-13-44W, altitude: 256 m

Observation

Le bulletin a été fait il y a 57 minutes, à 15:53 UTC
Vent 12 kt de nord/nord-ouest
Température 20°C
Humidité 53%
Pression 1018 hPa
Visibilité: 16.1 km
Ciel clair

METAR: KMSP 221553Z 33012KT 10SM CLR 20/10 A3005 RMK AO2 SLP172 T02000100

Heure: 11:50 (16:50 UTC)

Prévision

Le bulletin a été fait il y a 8 minutes, à 16:42 UTC
Prévision valable du 22 à 17 UTC au 23 à 18 UTC
Vent 14 kt de nord-ouest avec des rafales jusqu'à 21 kt
Visibilité: 10 km
Quelques nuages à une hauteur de 4500 ft
A partir de 23 à 0100 UTC
Vent 6 kt de nord-ouest
Visibilité: 10 km
Ciel clair

TAF: KMSP 221642Z 2217/2318 31014G21KT P6SM FEW045 FM230100 31006KT P6SM SKC

Observations et prévisions météorologiques de plus de 4000 aéroports (messages METAR et TAF).

Les stations disponibles sont représentées par des disques jaunes et rouges sur la carte.

Passer la souris dessus pour voir le nom de la station.

Cliquer dessus pour voir les observations et prévisions météorologiques.

Pour changer de carte: cliquez sur les boutons verts avec une croix noire pour zoomer, sur le bouton vert avec un tiret pour effectuer un zoom arrière, ou sur les flèches vertes pour les cartes adjacentes.


METAR-TAF: